sensor_id;sensor_type;location;lat;lon;timestamp;P1;durP1;ratioP1;P2;durP2;ratioP2
79702;SDS011;69172;52.352;5.006;2023-07-28T00:02:09;15.45;;;4.63;;
79702;SDS011;69172;52.352;5.006;2023-07-28T00:04:37;14.93;;;4.72;;
79702;SDS011;69172;52.352;5.006;2023-07-28T00:07:04;14.68;;;5.38;;
79702;SDS011;69172;52.352;5.006;2023-07-28T00:09:36;15.70;;;5.80;;
79702;SDS011;69172;52.352;5.006;2023-07-28T00:12:04;18.45;;;5.63;;
79702;SDS011;69172;52.352;5.006;2023-07-28T00:14:37;14.15;;;5.30;;
79702;SDS011;69172;52.352;5.006;2023-07-28T00:17:03;14.35;;;5.22;;
79702;SDS011;69172;52.352;5.006;2023-07-28T00:19:28;14.10;;;5.70;;
79702;SDS011;69172;52.352;5.006;2023-07-28T00:21:54;17.38;;;5.82;;
79702;SDS011;69172;52.352;5.006;2023-07-28T00:24:21;16.15;;;5.63;;
79702;SDS011;69172;52.352;5.006;2023-07-28T00:26:46;13.02;;;5.55;;
79702;SDS011;69172;52.352;5.006;2023-07-28T00:29:12;13.27;;;5.55;;
79702;SDS011;69172;52.352;5.006;2023-07-28T00:31:37;15.43;;;5.93;;
79702;SDS011;69172;52.352;5.006;2023-07-28T00:34:03;13.95;;;6.25;;
79702;SDS011;69172;52.352;5.006;2023-07-28T00:36:29;17.45;;;5.90;;
79702;SDS011;69172;52.352;5.006;2023-07-28T00:38:54;17.20;;;6.30;;
79702;SDS011;69172;52.352;5.006;2023-07-28T00:41:20;15.68;;;6.05;;
79702;SDS011;69172;52.352;5.006;2023-07-28T00:43:45;17.52;;;6.25;;
79702;SDS011;69172;52.352;5.006;2023-07-28T00:46:11;15.52;;;6.13;;
79702;SDS011;69172;52.352;5.006;2023-07-28T00:48:37;20.00;;;7.20;;
79702;SDS011;69172;52.352;5.006;2023-07-28T00:51:04;15.52;;;5.90;;
79702;SDS011;69172;52.352;5.006;2023-07-28T00:53:30;17.45;;;6.53;;
79702;SDS011;69172;52.352;5.006;2023-07-28T00:55:56;20.92;;;6.88;;
79702;SDS011;69172;52.352;5.006;2023-07-28T00:58:22;19.95;;;6.57;;
79702;SDS011;69172;52.352;5.006;2023-07-28T01:00:48;21.30;;;6.95;;
79702;SDS011;69172;52.352;5.006;2023-07-28T01:03:14;16.30;;;7.65;;
79702;SDS011;69172;52.352;5.006;2023-07-28T01:08:31;23.60;;;6.97;;
79702;SDS011;69172;52.352;5.006;2023-07-28T01:11:00;17.85;;;7.10;;
79702;SDS011;69172;52.352;5.006;2023-07-28T01:13:25;17.65;;;7.20;;
79702;SDS011;69172;52.352;5.006;2023-07-28T01:15:50;19.55;;;7.03;;
79702;SDS011;69172;52.352;5.006;2023-07-28T01:18:17;21.70;;;7.30;;
79702;SDS011;69172;52.352;5.006;2023-07-28T01:20:42;20.80;;;7.00;;
79702;SDS011;69172;52.352;5.006;2023-07-28T01:23:19;21.08;;;7.00;;
79702;SDS011;69172;52.352;5.006;2023-07-28T01:28:19;15.05;;;6.30;;
79702;SDS011;69172;52.352;5.006;2023-07-28T01:30:45;17.08;;;7.07;;
79702;SDS011;69172;52.352;5.006;2023-07-28T01:33:11;19.83;;;7.60;;
79702;SDS011;69172;52.352;5.006;2023-07-28T01:35:36;16.17;;;7.38;;
79702;SDS011;69172;52.352;5.006;2023-07-28T01:38:03;18.27;;;6.60;;
79702;SDS011;69172;52.352;5.006;2023-07-28T01:40:29;14.20;;;5.93;;
79702;SDS011;69172;52.352;5.006;2023-07-28T01:42:55;15.25;;;5.82;;
79702;SDS011;69172;52.352;5.006;2023-07-28T01:45:20;19.13;;;6.72;;
79702;SDS011;69172;52.352;5.006;2023-07-28T01:47:46;17.98;;;6.55;;
79702;SDS011;69172;52.352;5.006;2023-07-28T01:50:12;14.70;;;5.82;;
79702;SDS011;69172;52.352;5.006;2023-07-28T01:52:38;17.73;;;5.72;;
79702;SDS011;69172;52.352;5.006;2023-07-28T01:55:03;15.77;;;6.30;;
79702;SDS011;69172;52.352;5.006;2023-07-28T01:57:32;21.70;;;6.50;;
79702;SDS011;69172;52.352;5.006;2023-07-28T01:59:58;13.77;;;6.07;;
79702;SDS011;69172;52.352;5.006;2023-07-28T02:02:24;17.00;;;6.03;;
79702;SDS011;69172;52.352;5.006;2023-07-28T02:04:49;21.92;;;7.35;;
79702;SDS011;69172;52.352;5.006;2023-07-28T02:07:14;22.13;;;6.90;;
79702;SDS011;69172;52.352;5.006;2023-07-28T02:09:40;17.92;;;6.60;;
79702;SDS011;69172;52.352;5.006;2023-07-28T02:12:05;16.50;;;7.45;;
79702;SDS011;69172;52.352;5.006;2023-07-28T02:14:31;19.27;;;7.25;;
79702;SDS011;69172;52.352;5.006;2023-07-28T02:16:57;22.33;;;6.93;;
79702;SDS011;69172;52.352;5.006;2023-07-28T02:19:24;20.40;;;7.78;;
79702;SDS011;69172;52.352;5.006;2023-07-28T02:21:49;18.98;;;7.90;;
79702;SDS011;69172;52.352;5.006;2023-07-28T02:24:15;21.88;;;7.65;;
79702;SDS011;69172;52.352;5.006;2023-07-28T02:26:40;17.40;;;6.72;;
79702;SDS011;69172;52.352;5.006;2023-07-28T02:29:06;20.50;;;7.75;;
79702;SDS011;69172;52.352;5.006;2023-07-28T02:31:31;19.08;;;7.38;;
79702;SDS011;69172;52.352;5.006;2023-07-28T02:33:57;18.38;;;6.90;;
79702;SDS011;69172;52.352;5.006;2023-07-28T02:36:22;21.80;;;7.57;;
79702;SDS011;69172;52.352;5.006;2023-07-28T02:38:47;15.82;;;7.13;;
79702;SDS011;69172;52.352;5.006;2023-07-28T02:41:13;21.42;;;7.20;;
79702;SDS011;69172;52.352;5.006;2023-07-28T02:43:38;20.23;;;6.68;;
79702;SDS011;69172;52.352;5.006;2023-07-28T02:46:04;19.42;;;7.60;;
79702;SDS011;69172;52.352;5.006;2023-07-28T02:48:30;21.65;;;8.05;;
79702;SDS011;69172;52.352;5.006;2023-07-28T02:50:55;23.95;;;7.88;;
79702;SDS011;69172;52.352;5.006;2023-07-28T02:53:20;21.08;;;7.18;;
79702;SDS011;69172;52.352;5.006;2023-07-28T02:55:46;19.27;;;6.88;;
79702;SDS011;69172;52.352;5.006;2023-07-28T02:58:13;18.48;;;7.25;;
79702;SDS011;69172;52.352;5.006;2023-07-28T03:00:39;19.88;;;7.25;;
79702;SDS011;69172;52.352;5.006;2023-07-28T03:03:06;20.40;;;7.10;;
79702;SDS011;69172;52.352;5.006;2023-07-28T03:05:35;19.58;;;6.93;;
79702;SDS011;69172;52.352;5.006;2023-07-28T03:08:01;24.98;;;8.40;;
79702;SDS011;69172;52.352;5.006;2023-07-28T03:10:27;22.10;;;7.28;;
79702;SDS011;69172;52.352;5.006;2023-07-28T03:12:54;22.35;;;7.43;;
79702;SDS011;69172;52.352;5.006;2023-07-28T03:15:20;21.95;;;7.40;;
79702;SDS011;69172;52.352;5.006;2023-07-28T03:17:48;17.90;;;7.63;;
79702;SDS011;69172;52.352;5.006;2023-07-28T03:20:23;16.05;;;6.57;;
79702;SDS011;69172;52.352;5.006;2023-07-28T03:22:56;18.50;;;7.22;;
79702;SDS011;69172;52.352;5.006;2023-07-28T03:25:22;20.13;;;7.25;;
79702;SDS011;69172;52.352;5.006;2023-07-28T03:27:48;21.73;;;7.80;;
79702;SDS011;69172;52.352;5.006;2023-07-28T03:30:13;18.85;;;8.20;;
79702;SDS011;69172;52.352;5.006;2023-07-28T03:32:39;20.35;;;7.65;;
79702;SDS011;69172;52.352;5.006;2023-07-28T03:35:05;17.77;;;7.35;;
79702;SDS011;69172;52.352;5.006;2023-07-28T03:37:36;20.83;;;7.95;;
79702;SDS011;69172;52.352;5.006;2023-07-28T03:40:01;23.13;;;8.50;;
79702;SDS011;69172;52.352;5.006;2023-07-28T03:42:26;20.80;;;8.05;;
79702;SDS011;69172;52.352;5.006;2023-07-28T03:44:52;20.98;;;8.48;;
79702;SDS011;69172;52.352;5.006;2023-07-28T03:47:18;22.92;;;8.40;;
79702;SDS011;69172;52.352;5.006;2023-07-28T03:49:44;21.50;;;7.95;;
79702;SDS011;69172;52.352;5.006;2023-07-28T03:52:09;23.58;;;8.02;;
79702;SDS011;69172;52.352;5.006;2023-07-28T03:54:35;21.90;;;7.70;;
79702;SDS011;69172;52.352;5.006;2023-07-28T03:57:00;18.58;;;7.70;;
79702;SDS011;69172;52.352;5.006;2023-07-28T03:59:25;28.50;;;7.72;;
79702;SDS011;69172;52.352;5.006;2023-07-28T04:01:51;24.83;;;8.02;;
79702;SDS011;69172;52.352;5.006;2023-07-28T04:04:17;28.02;;;8.27;;
79702;SDS011;69172;52.352;5.006;2023-07-28T04:06:44;25.38;;;7.78;;
79702;SDS011;69172;52.352;5.006;2023-07-28T04:09:11;22.73;;;9.13;;
79702;SDS011;69172;52.352;5.006;2023-07-28T04:11:37;24.33;;;8.35;;
79702;SDS011;69172;52.352;5.006;2023-07-28T04:14:04;24.02;;;8.40;;
79702;SDS011;69172;52.352;5.006;2023-07-28T04:16:30;20.70;;;8.27;;
79702;SDS011;69172;52.352;5.006;2023-07-28T04:18:55;23.80;;;8.43;;
79702;SDS011;69172;52.352;5.006;2023-07-28T04:21:22;21.05;;;7.38;;
79702;SDS011;69172;52.352;5.006;2023-07-28T04:23:48;20.85;;;7.53;;
79702;SDS011;69172;52.352;5.006;2023-07-28T04:26:13;23.75;;;8.30;;
79702;SDS011;69172;52.352;5.006;2023-07-28T04:28:39;20.20;;;8.40;;
79702;SDS011;69172;52.352;5.006;2023-07-28T04:31:05;26.73;;;7.88;;
79702;SDS011;69172;52.352;5.006;2023-07-28T04:33:31;21.95;;;8.07;;
79702;SDS011;69172;52.352;5.006;2023-07-28T04:35:56;19.98;;;7.32;;
79702;SDS011;69172;52.352;5.006;2023-07-28T04:38:22;20.80;;;7.28;;
79702;SDS011;69172;52.352;5.006;2023-07-28T04:40:47;21.73;;;8.15;;
79702;SDS011;69172;52.352;5.006;2023-07-28T04:43:12;22.75;;;8.15;;
79702;SDS011;69172;52.352;5.006;2023-07-28T04:45:38;28.63;;;8.90;;
79702;SDS011;69172;52.352;5.006;2023-07-28T04:48:04;20.85;;;8.85;;
79702;SDS011;69172;52.352;5.006;2023-07-28T04:50:30;26.10;;;9.13;;
79702;SDS011;69172;52.352;5.006;2023-07-28T04:52:58;18.50;;;8.77;;
79702;SDS011;69172;52.352;5.006;2023-07-28T04:55:23;27.45;;;9.65;;
79702;SDS011;69172;52.352;5.006;2023-07-28T04:57:49;21.75;;;8.80;;
79702;SDS011;69172;52.352;5.006;2023-07-28T05:00:14;21.90;;;8.77;;
79702;SDS011;69172;52.352;5.006;2023-07-28T05:02:45;23.75;;;8.38;;
79702;SDS011;69172;52.352;5.006;2023-07-28T05:07:38;20.20;;;8.27;;
79702;SDS011;69172;52.352;5.006;2023-07-28T05:10:03;17.15;;;8.02;;
79702;SDS011;69172;52.352;5.006;2023-07-28T05:12:29;26.73;;;8.57;;
79702;SDS011;69172;52.352;5.006;2023-07-28T05:14:55;22.98;;;8.50;;
79702;SDS011;69172;52.352;5.006;2023-07-28T05:17:21;21.33;;;9.07;;
79702;SDS011;69172;52.352;5.006;2023-07-28T05:19:46;20.23;;;7.95;;
79702;SDS011;69172;52.352;5.006;2023-07-28T05:22:12;20.50;;;8.82;;
79702;SDS011;69172;52.352;5.006;2023-07-28T05:24:38;19.52;;;9.43;;
79702;SDS011;69172;52.352;5.006;2023-07-28T05:27:04;20.15;;;9.18;;
79702;SDS011;69172;52.352;5.006;2023-07-28T05:29:30;23.15;;;9.65;;
79702;SDS011;69172;52.352;5.006;2023-07-28T05:32:00;22.73;;;9.20;;
79702;SDS011;69172;52.352;5.006;2023-07-28T05:34:25;21.52;;;9.32;;
79702;SDS011;69172;52.352;5.006;2023-07-28T05:36:53;22.98;;;8.98;;
79702;SDS011;69172;52.352;5.006;2023-07-28T05:39:20;24.30;;;8.80;;
79702;SDS011;69172;52.352;5.006;2023-07-28T05:41:46;20.77;;;9.38;;
79702;SDS011;69172;52.352;5.006;2023-07-28T05:44:11;27.98;;;10.15;;
79702;SDS011;69172;52.352;5.006;2023-07-28T05:46:37;23.27;;;9.35;;
79702;SDS011;69172;52.352;5.006;2023-07-28T05:49:02;22.60;;;9.77;;
79702;SDS011;69172;52.352;5.006;2023-07-28T05:51:28;24.67;;;9.65;;
79702;SDS011;69172;52.352;5.006;2023-07-28T05:53:53;21.48;;;8.63;;
79702;SDS011;69172;52.352;5.006;2023-07-28T05:56:19;22.23;;;9.68;;
79702;SDS011;69172;52.352;5.006;2023-07-28T05:58:48;23.63;;;9.75;;
79702;SDS011;69172;52.352;5.006;2023-07-28T06:01:14;21.95;;;9.23;;
79702;SDS011;69172;52.352;5.006;2023-07-28T06:03:40;24.85;;;9.77;;
79702;SDS011;69172;52.352;5.006;2023-07-28T06:06:05;22.17;;;10.25;;
79702;SDS011;69172;52.352;5.006;2023-07-28T06:08:30;22.77;;;9.82;;
79702;SDS011;69172;52.352;5.006;2023-07-28T06:10:56;22.55;;;9.93;;
79702;SDS011;69172;52.352;5.006;2023-07-28T06:13:21;26.15;;;9.57;;
79702;SDS011;69172;52.352;5.006;2023-07-28T06:15:48;18.73;;;8.93;;
79702;SDS011;69172;52.352;5.006;2023-07-28T06:18:13;21.95;;;10.02;;
79702;SDS011;69172;52.352;5.006;2023-07-28T06:20:44;24.08;;;9.73;;
79702;SDS011;69172;52.352;5.006;2023-07-28T06:23:11;20.45;;;9.38;;
79702;SDS011;69172;52.352;5.006;2023-07-28T06:25:36;22.50;;;9.23;;
79702;SDS011;69172;52.352;5.006;2023-07-28T06:28:07;20.55;;;9.77;;
79702;SDS011;69172;52.352;5.006;2023-07-28T06:30:33;25.88;;;9.88;;
79702;SDS011;69172;52.352;5.006;2023-07-28T06:32:58;21.52;;;9.23;;
79702;SDS011;69172;52.352;5.006;2023-07-28T06:35:23;22.55;;;8.75;;
79702;SDS011;69172;52.352;5.006;2023-07-28T06:37:49;22.40;;;9.15;;
79702;SDS011;69172;52.352;5.006;2023-07-28T06:40:14;22.73;;;9.80;;
79702;SDS011;69172;52.352;5.006;2023-07-28T06:42:40;20.70;;;9.20;;
79702;SDS011;69172;52.352;5.006;2023-07-28T06:45:07;23.73;;;9.52;;
79702;SDS011;69172;52.352;5.006;2023-07-28T06:47:33;22.42;;;9.00;;
79702;SDS011;69172;52.352;5.006;2023-07-28T06:49:59;22.40;;;10.15;;
79702;SDS011;69172;52.352;5.006;2023-07-28T06:52:25;18.25;;;9.68;;
79702;SDS011;69172;52.352;5.006;2023-07-28T06:54:53;21.45;;;10.73;;
79702;SDS011;69172;52.352;5.006;2023-07-28T06:57:20;23.70;;;10.50;;
79702;SDS011;69172;52.352;5.006;2023-07-28T06:59:45;22.75;;;10.52;;
79702;SDS011;69172;52.352;5.006;2023-07-28T07:02:11;23.60;;;10.55;;
79702;SDS011;69172;52.352;5.006;2023-07-28T07:04:36;19.80;;;10.15;;
79702;SDS011;69172;52.352;5.006;2023-07-28T07:07:03;20.88;;;10.15;;
79702;SDS011;69172;52.352;5.006;2023-07-28T07:09:28;20.42;;;9.93;;
79702;SDS011;69172;52.352;5.006;2023-07-28T07:11:54;16.77;;;9.00;;
79702;SDS011;69172;52.352;5.006;2023-07-28T07:14:20;20.45;;;9.95;;
79702;SDS011;69172;52.352;5.006;2023-07-28T07:16:45;23.15;;;10.00;;
79702;SDS011;69172;52.352;5.006;2023-07-28T07:19:10;21.10;;;8.80;;
79702;SDS011;69172;52.352;5.006;2023-07-28T07:21:36;18.75;;;9.27;;
79702;SDS011;69172;52.352;5.006;2023-07-28T07:24:02;19.17;;;8.35;;
79702;SDS011;69172;52.352;5.006;2023-07-28T07:26:29;17.08;;;8.48;;
79702;SDS011;69172;52.352;5.006;2023-07-28T07:28:55;18.20;;;9.35;;
79702;SDS011;69172;52.352;5.006;2023-07-28T07:31:21;21.27;;;9.60;;
79702;SDS011;69172;52.352;5.006;2023-07-28T07:33:46;18.05;;;8.95;;
79702;SDS011;69172;52.352;5.006;2023-07-28T07:36:12;17.38;;;8.90;;
79702;SDS011;69172;52.352;5.006;2023-07-28T07:38:39;16.65;;;7.97;;
79702;SDS011;69172;52.352;5.006;2023-07-28T07:41:06;17.35;;;8.50;;
79702;SDS011;69172;52.352;5.006;2023-07-28T07:43:32;20.33;;;8.15;;
79702;SDS011;69172;52.352;5.006;2023-07-28T07:45:58;13.32;;;7.55;;
79702;SDS011;69172;52.352;5.006;2023-07-28T07:48:24;17.85;;;8.30;;
79702;SDS011;69172;52.352;5.006;2023-07-28T07:50:51;17.85;;;8.48;;
79702;SDS011;69172;52.352;5.006;2023-07-28T07:53:16;16.67;;;7.45;;
79702;SDS011;69172;52.352;5.006;2023-07-28T07:55:42;15.40;;;7.38;;
79702;SDS011;69172;52.352;5.006;2023-07-28T07:58:09;14.75;;;7.55;;
79702;SDS011;69172;52.352;5.006;2023-07-28T08:00:35;15.35;;;7.57;;
79702;SDS011;69172;52.352;5.006;2023-07-28T08:03:03;16.27;;;7.55;;
79702;SDS011;69172;52.352;5.006;2023-07-28T08:05:31;15.13;;;7.30;;
79702;SDS011;69172;52.352;5.006;2023-07-28T08:07:56;17.45;;;7.72;;
79702;SDS011;69172;52.352;5.006;2023-07-28T08:10:22;16.58;;;7.82;;
79702;SDS011;69172;52.352;5.006;2023-07-28T08:12:48;15.13;;;6.80;;
79702;SDS011;69172;52.352;5.006;2023-07-28T08:15:14;16.02;;;7.40;;
79702;SDS011;69172;52.352;5.006;2023-07-28T08:17:39;14.48;;;6.68;;
79702;SDS011;69172;52.352;5.006;2023-07-28T08:20:06;13.70;;;6.70;;
79702;SDS011;69172;52.352;5.006;2023-07-28T08:22:33;15.32;;;6.32;;
79702;SDS011;69172;52.352;5.006;2023-07-28T08:24:58;14.88;;;6.05;;
79702;SDS011;69172;52.352;5.006;2023-07-28T08:27:25;12.57;;;6.20;;
79702;SDS011;69172;52.352;5.006;2023-07-28T08:29:51;14.77;;;5.93;;
79702;SDS011;69172;52.352;5.006;2023-07-28T08:32:16;15.30;;;5.78;;
79702;SDS011;69172;52.352;5.006;2023-07-28T08:34:43;15.45;;;5.80;;
79702;SDS011;69172;52.352;5.006;2023-07-28T08:37:08;12.13;;;5.10;;
79702;SDS011;69172;52.352;5.006;2023-07-28T08:39:35;11.25;;;5.03;;
79702;SDS011;69172;52.352;5.006;2023-07-28T08:42:01;12.65;;;5.55;;
79702;SDS011;69172;52.352;5.006;2023-07-28T08:44:33;12.40;;;5.07;;
79702;SDS011;69172;52.352;5.006;2023-07-28T08:47:00;9.55;;;4.63;;
79702;SDS011;69172;52.352;5.006;2023-07-28T08:49:32;12.07;;;5.05;;
79702;SDS011;69172;52.352;5.006;2023-07-28T08:52:00;11.65;;;4.60;;
79702;SDS011;69172;52.352;5.006;2023-07-28T08:54:26;10.77;;;5.10;;
79702;SDS011;69172;52.352;5.006;2023-07-28T08:56:53;14.00;;;5.32;;
79702;SDS011;69172;52.352;5.006;2023-07-28T08:59:25;13.02;;;5.60;;
79702;SDS011;69172;52.352;5.006;2023-07-28T09:01:52;12.10;;;5.82;;
79702;SDS011;69172;52.352;5.006;2023-07-28T09:04:20;12.30;;;5.80;;
79702;SDS011;69172;52.352;5.006;2023-07-28T09:06:46;14.88;;;5.78;;
79702;SDS011;69172;52.352;5.006;2023-07-28T09:09:15;11.98;;;5.15;;
79702;SDS011;69172;52.352;5.006;2023-07-28T09:14:12;11.73;;;4.93;;
79702;SDS011;69172;52.352;5.006;2023-07-28T09:16:38;14.57;;;5.07;;
79702;SDS011;69172;52.352;5.006;2023-07-28T09:19:04;10.73;;;4.50;;
79702;SDS011;69172;52.352;5.006;2023-07-28T09:21:32;14.18;;;5.18;;
79702;SDS011;69172;52.352;5.006;2023-07-28T09:24:01;9.50;;;4.80;;
79702;SDS011;69172;52.352;5.006;2023-07-28T09:26:38;11.60;;;4.82;;
79702;SDS011;69172;52.352;5.006;2023-07-28T09:29:11;14.75;;;5.22;;
79702;SDS011;69172;52.352;5.006;2023-07-28T09:31:37;10.35;;;4.47;;
79702;SDS011;69172;52.352;5.006;2023-07-28T09:34:07;11.13;;;4.45;;
79702;SDS011;69172;52.352;5.006;2023-07-28T09:36:34;12.43;;;4.85;;
79702;SDS011;69172;52.352;5.006;2023-07-28T09:39:01;8.93;;;3.80;;
79702;SDS011;69172;52.352;5.006;2023-07-28T09:41:29;7.53;;;4.03;;
79702;SDS011;69172;52.352;5.006;2023-07-28T09:43:55;10.73;;;3.85;;
79702;SDS011;69172;52.352;5.006;2023-07-28T09:46:22;10.30;;;4.13;;
79702;SDS011;69172;52.352;5.006;2023-07-28T09:48:49;11.27;;;4.20;;
79702;SDS011;69172;52.352;5.006;2023-07-28T09:51:20;9.13;;;4.68;;
79702;SDS011;69172;52.352;5.006;2023-07-28T09:53:55;11.23;;;4.28;;
79702;SDS011;69172;52.352;5.006;2023-07-28T09:56:28;12.20;;;5.30;;
79702;SDS011;69172;52.352;5.006;2023-07-28T09:58:57;13.80;;;5.95;;
79702;SDS011;69172;52.352;5.006;2023-07-28T10:01:24;9.05;;;4.35;;
79702;SDS011;69172;52.352;5.006;2023-07-28T10:03:50;9.90;;;4.00;;
79702;SDS011;69172;52.352;5.006;2023-07-28T10:06:16;6.65;;;3.45;;
79702;SDS011;69172;52.352;5.006;2023-07-28T10:08:45;11.45;;;4.18;;
79702;SDS011;69172;52.352;5.006;2023-07-28T10:11:14;9.20;;;4.15;;
79702;SDS011;69172;52.352;5.006;2023-07-28T10:13:43;8.75;;;3.70;;
79702;SDS011;69172;52.352;5.006;2023-07-28T10:16:09;12.38;;;3.95;;
79702;SDS011;69172;52.352;5.006;2023-07-28T10:18:35;9.70;;;4.05;;
79702;SDS011;69172;52.352;5.006;2023-07-28T10:21:15;9.48;;;3.70;;
79702;SDS011;69172;52.352;5.006;2023-07-28T10:23:41;10.95;;;4.20;;
79702;SDS011;69172;52.352;5.006;2023-07-28T10:26:06;9.32;;;4.03;;
79702;SDS011;69172;52.352;5.006;2023-07-28T10:28:36;8.85;;;4.32;;
79702;SDS011;69172;52.352;5.006;2023-07-28T10:31:10;11.45;;;4.53;;
79702;SDS011;69172;52.352;5.006;2023-07-28T10:33:37;10.48;;;4.32;;
79702;SDS011;69172;52.352;5.006;2023-07-28T10:39:00;10.93;;;4.88;;
79702;SDS011;69172;52.352;5.006;2023-07-28T10:41:29;9.02;;;4.20;;
79702;SDS011;69172;52.352;5.006;2023-07-28T10:43:56;8.48;;;4.40;;
79702;SDS011;69172;52.352;5.006;2023-07-28T10:46:22;11.23;;;4.97;;
79702;SDS011;69172;52.352;5.006;2023-07-28T10:48:49;10.38;;;4.50;;
79702;SDS011;69172;52.352;5.006;2023-07-28T10:51:25;11.75;;;5.30;;
79702;SDS011;69172;52.352;5.006;2023-07-28T10:53:57;10.63;;;4.60;;
79702;SDS011;69172;52.352;5.006;2023-07-28T10:56:23;12.27;;;5.05;;
79702;SDS011;69172;52.352;5.006;2023-07-28T10:59:01;9.43;;;4.70;;
79702;SDS011;69172;52.352;5.006;2023-07-28T11:01:33;9.82;;;4.50;;
79702;SDS011;69172;52.352;5.006;2023-07-28T11:04:15;11.55;;;4.72;;
79702;SDS011;69172;52.352;5.006;2023-07-28T11:06:45;12.23;;;4.30;;
79702;SDS011;69172;52.352;5.006;2023-07-28T11:09:13;11.07;;;4.55;;
79702;SDS011;69172;52.352;5.006;2023-07-28T11:11:41;11.25;;;5.10;;
79702;SDS011;69172;52.352;5.006;2023-07-28T11:14:08;8.95;;;4.65;;
79702;SDS011;69172;52.352;5.006;2023-07-28T11:16:38;8.20;;;4.45;;
79702;SDS011;69172;52.352;5.006;2023-07-28T11:19:10;8.10;;;4.43;;
79702;SDS011;69172;52.352;5.006;2023-07-28T11:21:40;9.13;;;4.32;;
79702;SDS011;69172;52.352;5.006;2023-07-28T11:24:07;8.80;;;4.18;;
79702;SDS011;69172;52.352;5.006;2023-07-28T11:26:36;9.68;;;4.55;;
79702;SDS011;69172;52.352;5.006;2023-07-28T11:29:04;9.48;;;4.60;;
79702;SDS011;69172;52.352;5.006;2023-07-28T11:31:29;10.02;;;4.32;;
79702;SDS011;69172;52.352;5.006;2023-07-28T11:33:55;16.33;;;4.43;;
79702;SDS011;69172;52.352;5.006;2023-07-28T11:36:24;8.70;;;4.43;;
79702;SDS011;69172;52.352;5.006;2023-07-28T11:38:51;9.75;;;4.43;;
79702;SDS011;69172;52.352;5.006;2023-07-28T11:41:19;10.80;;;4.68;;
79702;SDS011;69172;52.352;5.006;2023-07-28T11:43:46;13.10;;;5.55;;
79702;SDS011;69172;52.352;5.006;2023-07-28T11:49:19;9.38;;;4.95;;
79702;SDS011;69172;52.352;5.006;2023-07-28T11:51:48;9.63;;;4.15;;
79702;SDS011;69172;52.352;5.006;2023-07-28T11:54:19;10.63;;;4.20;;
79702;SDS011;69172;52.352;5.006;2023-07-28T11:56:47;11.90;;;4.43;;
79702;SDS011;69172;52.352;5.006;2023-07-28T11:59:14;9.60;;;4.47;;
79702;SDS011;69172;52.352;5.006;2023-07-28T12:01:53;9.93;;;4.55;;
79702;SDS011;69172;52.352;5.006;2023-07-28T12:04:24;8.00;;;3.63;;
79702;SDS011;69172;52.352;5.006;2023-07-28T12:12:17;9.43;;;3.80;;
79702;SDS011;69172;52.352;5.006;2023-07-28T12:14:43;8.85;;;3.83;;
79702;SDS011;69172;52.352;5.006;2023-07-28T12:17:14;7.75;;;3.97;;
79702;SDS011;69172;52.352;5.006;2023-07-28T12:19:41;9.05;;;3.50;;
79702;SDS011;69172;52.352;5.006;2023-07-28T12:22:19;8.75;;;3.50;;
79702;SDS011;69172;52.352;5.006;2023-07-28T12:24:44;8.48;;;3.70;;
79702;SDS011;69172;52.352;5.006;2023-07-28T12:27:10;9.73;;;4.22;;
79702;SDS011;69172;52.352;5.006;2023-07-28T12:29:36;11.07;;;4.10;;
79702;SDS011;69172;52.352;5.006;2023-07-28T12:32:01;8.13;;;4.05;;
79702;SDS011;69172;52.352;5.006;2023-07-28T12:34:27;10.02;;;3.55;;
79702;SDS011;69172;52.352;5.006;2023-07-28T12:36:52;8.93;;;3.75;;
79702;SDS011;69172;52.352;5.006;2023-07-28T12:39:18;8.07;;;3.50;;
79702;SDS011;69172;52.352;5.006;2023-07-28T12:41:44;10.13;;;3.88;;
79702;SDS011;69172;52.352;5.006;2023-07-28T12:44:10;7.80;;;2.83;;
79702;SDS011;69172;52.352;5.006;2023-07-28T12:46:35;10.35;;;3.35;;
79702;SDS011;69172;52.352;5.006;2023-07-28T12:49:02;7.93;;;3.70;;
79702;SDS011;69172;52.352;5.006;2023-07-28T12:51:32;8.60;;;3.45;;
79702;SDS011;69172;52.352;5.006;2023-07-28T12:53:57;8.20;;;2.65;;
79702;SDS011;69172;52.352;5.006;2023-07-28T12:56:25;10.52;;;3.63;;
79702;SDS011;69172;52.352;5.006;2023-07-28T12:58:50;7.45;;;3.08;;
79702;SDS011;69172;52.352;5.006;2023-07-28T13:01:16;8.23;;;3.70;;
79702;SDS011;69172;52.352;5.006;2023-07-28T13:03:41;11.27;;;4.28;;
79702;SDS011;69172;52.352;5.006;2023-07-28T13:06:07;9.23;;;3.67;;
79702;SDS011;69172;52.352;5.006;2023-07-28T13:08:32;8.93;;;3.50;;
79702;SDS011;69172;52.352;5.006;2023-07-28T13:10:57;9.23;;;3.22;;
79702;SDS011;69172;52.352;5.006;2023-07-28T13:13:23;9.75;;;3.42;;
79702;SDS011;69172;52.352;5.006;2023-07-28T13:15:48;8.75;;;3.70;;
79702;SDS011;69172;52.352;5.006;2023-07-28T13:18:14;8.15;;;3.00;;
79702;SDS011;69172;52.352;5.006;2023-07-28T13:20:39;7.10;;;3.17;;
79702;SDS011;69172;52.352;5.006;2023-07-28T13:23:05;9.00;;;2.70;;
79702;SDS011;69172;52.352;5.006;2023-07-28T13:25:31;10.18;;;3.58;;
79702;SDS011;69172;52.352;5.006;2023-07-28T13:27:56;6.22;;;2.70;;
79702;SDS011;69172;52.352;5.006;2023-07-28T13:30:22;9.13;;;2.90;;
79702;SDS011;69172;52.352;5.006;2023-07-28T13:32:47;6.25;;;3.17;;
79702;SDS011;69172;52.352;5.006;2023-07-28T13:35:12;6.25;;;2.65;;
79702;SDS011;69172;52.352;5.006;2023-07-28T13:37:39;6.07;;;2.60;;
79702;SDS011;69172;52.352;5.006;2023-07-28T13:40:06;6.90;;;3.03;;
79702;SDS011;69172;52.352;5.006;2023-07-28T13:42:32;8.00;;;3.03;;
79702;SDS011;69172;52.352;5.006;2023-07-28T13:44:57;8.90;;;2.88;;
79702;SDS011;69172;52.352;5.006;2023-07-28T13:47:23;9.38;;;3.30;;
79702;SDS011;69172;52.352;5.006;2023-07-28T13:49:48;9.82;;;3.08;;
79702;SDS011;69172;52.352;5.006;2023-07-28T13:52:14;9.23;;;3.17;;
79702;SDS011;69172;52.352;5.006;2023-07-28T13:54:39;8.48;;;2.83;;
79702;SDS011;69172;52.352;5.006;2023-07-28T13:57:04;8.70;;;3.00;;
79702;SDS011;69172;52.352;5.006;2023-07-28T13:59:32;6.53;;;2.72;;
79702;SDS011;69172;52.352;5.006;2023-07-28T14:01:57;8.07;;;3.08;;
79702;SDS011;69172;52.352;5.006;2023-07-28T14:04:25;6.70;;;2.60;;
79702;SDS011;69172;52.352;5.006;2023-07-28T14:06:50;8.85;;;3.13;;
79702;SDS011;69172;52.352;5.006;2023-07-28T14:09:16;7.90;;;2.90;;
79702;SDS011;69172;52.352;5.006;2023-07-28T14:11:41;8.23;;;2.72;;
79702;SDS011;69172;52.352;5.006;2023-07-28T14:14:07;5.72;;;2.65;;
79702;SDS011;69172;52.352;5.006;2023-07-28T14:16:32;6.50;;;2.65;;
79702;SDS011;69172;52.352;5.006;2023-07-28T14:18:58;6.90;;;2.40;;
79702;SDS011;69172;52.352;5.006;2023-07-28T14:21:24;7.65;;;2.67;;
79702;SDS011;69172;52.352;5.006;2023-07-28T14:23:50;6.43;;;2.45;;
79702;SDS011;69172;52.352;5.006;2023-07-28T14:26:15;6.68;;;2.42;;
79702;SDS011;69172;52.352;5.006;2023-07-28T14:28:42;7.20;;;2.70;;
79702;SDS011;69172;52.352;5.006;2023-07-28T14:31:08;8.68;;;3.00;;
79702;SDS011;69172;52.352;5.006;2023-07-28T14:33:33;8.05;;;2.50;;
79702;SDS011;69172;52.352;5.006;2023-07-28T14:35:58;6.70;;;2.40;;
79702;SDS011;69172;52.352;5.006;2023-07-28T14:38:24;8.43;;;3.05;;
79702;SDS011;69172;52.352;5.006;2023-07-28T14:40:49;4.40;;;2.42;;
79702;SDS011;69172;52.352;5.006;2023-07-28T14:43:17;9.65;;;2.17;;
79702;SDS011;69172;52.352;5.006;2023-07-28T14:45:43;7.75;;;2.63;;
79702;SDS011;69172;52.352;5.006;2023-07-28T14:48:08;6.43;;;2.47;;
79702;SDS011;69172;52.352;5.006;2023-07-28T14:50:34;4.28;;;2.13;;
79702;SDS011;69172;52.352;5.006;2023-07-28T14:52:59;6.97;;;2.40;;
79702;SDS011;69172;52.352;5.006;2023-07-28T14:55:25;6.32;;;2.80;;
79702;SDS011;69172;52.352;5.006;2023-07-28T14:57:53;6.65;;;2.50;;